createdAt,value
2018-09-09T00:01:28.843Z,11.90
2018-09-09T00:04:00.714Z,11.90
2018-09-09T00:06:32.441Z,11.90
2018-09-09T00:09:04.443Z,11.90
2018-09-09T00:11:36.397Z,11.90
2018-09-09T00:14:08.225Z,11.90
2018-09-09T00:16:40.019Z,12.00
2018-09-09T00:19:11.754Z,12.00
2018-09-09T00:21:43.645Z,12.00
2018-09-09T00:24:15.373Z,12.00
2018-09-09T00:26:47.062Z,12.10
2018-09-09T00:29:18.880Z,12.20
2018-09-09T00:31:50.672Z,12.20
2018-09-09T00:34:22.750Z,12.20
2018-09-09T00:36:54.610Z,12.30
2018-09-09T00:39:26.333Z,12.40
2018-09-09T00:41:58.082Z,12.50
2018-09-09T00:44:29.879Z,12.50
2018-09-09T00:47:01.737Z,12.60
2018-09-09T00:49:38.317Z,12.50
2018-09-09T00:52:15.882Z,12.60
2018-09-09T00:54:47.657Z,12.60
2018-09-09T00:57:19.362Z,12.60
2018-09-09T00:59:51.283Z,12.50
2018-09-09T01:02:23.033Z,12.50
2018-09-09T01:04:54.879Z,12.40
2018-09-09T01:07:26.742Z,12.40
2018-09-09T01:09:58.594Z,12.30
2018-09-09T01:12:30.264Z,12.20
2018-09-09T01:15:02.028Z,12.10
2018-09-09T01:17:33.869Z,12.10
2018-09-09T01:20:05.737Z,12.00
2018-09-09T01:22:37.398Z,12.10
2018-09-09T01:25:09.255Z,12.10
2018-09-09T01:27:41.046Z,12.20
2018-09-09T01:30:13.013Z,12.30
2018-09-09T01:32:44.753Z,12.20
2018-09-09T01:35:16.589Z,12.20
2018-09-09T01:37:48.250Z,12.20
2018-09-09T01:40:20.046Z,12.10
2018-09-09T01:42:51.761Z,12.10
2018-09-09T01:45:23.427Z,12.10
2018-09-09T01:47:55.098Z,12.20
2018-09-09T01:50:26.837Z,12.30
2018-09-09T01:52:58.522Z,12.40
2018-09-09T01:55:30.378Z,12.40
2018-09-09T01:58:02.116Z,12.30
2018-09-09T02:00:33.799Z,12.30
2018-09-09T02:03:05.563Z,12.30
2018-09-09T02:05:37.393Z,12.30
2018-09-09T02:08:09.288Z,12.30
2018-09-09T02:10:41.037Z,12.20
2018-09-09T02:13:12.777Z,12.10
2018-09-09T02:15:55.406Z,12.00
2018-09-09T02:18:27.168Z,12.00
2018-09-09T02:20:59.019Z,12.10
2018-09-09T02:23:30.776Z,12.20
2018-09-09T02:26:02.437Z,12.30
2018-09-09T02:28:34.184Z,12.30
2018-09-09T02:31:05.937Z,12.30
2018-09-09T02:33:37.801Z,12.40
2018-09-09T02:36:09.656Z,12.50
2018-09-09T02:38:41.426Z,12.40
2018-09-09T02:41:13.272Z,12.30
2018-09-09T02:43:45.117Z,12.30
2018-09-09T02:46:16.934Z,12.40
2018-09-09T02:48:48.795Z,12.50
2018-09-09T02:51:20.429Z,12.50
2018-09-09T02:53:52.173Z,12.50
2018-09-09T02:56:23.834Z,12.30
2018-09-09T02:58:55.607Z,12.10
2018-09-09T03:01:27.364Z,12.10
2018-09-09T03:03:59.016Z,12.10
2018-09-09T03:06:30.769Z,12.10
2018-09-09T03:09:02.866Z,12.20
2018-09-09T03:11:34.519Z,12.20
2018-09-09T03:14:06.194Z,12.20
2018-09-09T03:16:38.118Z,12.00
2018-09-09T03:19:09.721Z,11.90
2018-09-09T03:21:41.445Z,11.70
2018-09-09T03:24:13.216Z,11.70
2018-09-09T03:26:44.970Z,11.60
2018-09-09T03:29:16.681Z,11.60
2018-09-09T03:31:48.492Z,11.60
2018-09-09T03:34:20.122Z,11.70
2018-09-09T03:36:51.902Z,11.80
2018-09-09T03:39:23.777Z,11.80
2018-09-09T03:41:55.408Z,11.90
2018-09-09T03:44:27.154Z,12.00
2018-09-09T03:46:58.948Z,12.10
2018-09-09T03:49:30.663Z,12.20
2018-09-09T03:52:02.521Z,12.10
2018-09-09T03:54:34.307Z,12.10
2018-09-09T03:57:06.182Z,12.10
2018-09-09T03:59:38.929Z,12.10
2018-09-09T04:02:10.589Z,12.00
2018-09-09T04:04:42.264Z,12.00
2018-09-09T04:07:14.020Z,12.00
2018-09-09T04:09:45.758Z,12.00
2018-09-09T04:12:17.450Z,12.00
2018-09-09T04:14:49.195Z,12.00
2018-09-09T04:17:20.861Z,12.00
2018-09-09T04:19:52.630Z,11.90
2018-09-09T04:22:24.249Z,11.90
2018-09-09T04:24:56.050Z,11.90
2018-09-09T04:27:27.766Z,11.90
2018-09-09T04:29:59.440Z,11.90
2018-09-09T04:32:31.177Z,12.00
2018-09-09T04:35:02.869Z,12.10
2018-09-09T04:37:34.610Z,12.10
2018-09-09T04:40:06.490Z,12.20
2018-09-09T04:42:38.317Z,12.30
2018-09-09T04:45:10.119Z,12.30
2018-09-09T04:47:41.964Z,12.40
2018-09-09T04:50:13.799Z,12.40
2018-09-09T04:52:45.672Z,12.50
2018-09-09T04:55:17.454Z,12.60
2018-09-09T04:57:49.098Z,12.70
2018-09-09T05:00:20.875Z,12.60
2018-09-09T05:02:52.635Z,12.60
2018-09-09T05:05:24.425Z,12.50
2018-09-09T05:07:56.217Z,12.60
2018-09-09T05:10:28.111Z,12.60
2018-09-09T05:12:59.759Z,12.60
2018-09-09T05:15:31.500Z,12.60
2018-09-09T05:18:03.292Z,12.70
2018-09-09T05:20:34.934Z,12.70
2018-09-09T05:23:06.786Z,12.70
2018-09-09T05:25:38.428Z,12.70
2018-09-09T05:28:10.110Z,12.80
2018-09-09T05:30:41.955Z,12.80
2018-09-09T05:33:13.739Z,12.80
2018-09-09T05:35:45.389Z,12.80
2018-09-09T05:38:17.257Z,12.80
2018-09-09T05:40:48.881Z,12.90
2018-09-09T05:43:20.653Z,12.90
2018-09-09T05:45:52.506Z,13.00
2018-09-09T05:48:24.292Z,13.00
2018-09-09T05:50:55.929Z,13.10
2018-09-09T05:53:27.821Z,13.20
2018-09-09T05:55:59.672Z,13.20
2018-09-09T05:58:31.431Z,13.30
2018-09-09T06:01:03.273Z,13.40
2018-09-09T06:03:35.017Z,13.40
2018-09-09T06:06:06.693Z,13.50
2018-09-09T06:08:38.434Z,13.60
2018-09-09T06:11:10.329Z,13.60
2018-09-09T06:13:41.965Z,13.70
2018-09-09T06:16:13.638Z,13.80
2018-09-09T06:18:45.493Z,13.90
2018-09-09T06:21:17.305Z,14.00
2018-09-09T06:23:49.006Z,14.10
2018-09-09T06:26:20.756Z,14.20
2018-09-09T06:28:52.535Z,14.30
2018-09-09T06:31:24.179Z,14.30
2018-09-09T06:33:56.079Z,14.40
2018-09-09T06:36:27.913Z,14.50
2018-09-09T06:38:59.767Z,14.70
2018-09-09T06:41:31.503Z,14.80
2018-09-09T06:44:03.186Z,14.90
2018-09-09T06:46:34.970Z,15.00
2018-09-09T06:49:07.290Z,15.10
2018-09-09T06:51:39.158Z,15.20
2018-09-09T06:54:10.908Z,15.40
2018-09-09T06:56:42.705Z,15.50
2018-09-09T06:59:14.342Z,15.70
2018-09-09T07:01:46.223Z,15.90
2018-09-09T07:04:17.854Z,16.00
2018-09-09T07:06:49.627Z,16.10
2018-09-09T07:09:21.566Z,16.30
2018-09-09T07:11:53.398Z,16.40
2018-09-09T07:14:25.120Z,16.60
2018-09-09T07:16:56.919Z,16.70
2018-09-09T07:19:28.738Z,16.90
2018-09-09T07:22:00.374Z,17.00
2018-09-09T07:24:32.126Z,17.10
2018-09-09T07:27:03.883Z,17.30
2018-09-09T07:29:35.672Z,17.40
2018-09-09T07:32:07.466Z,17.60
2018-09-09T07:34:39.287Z,17.70
2018-09-09T07:37:11.235Z,17.70
2018-09-09T07:39:42.889Z,17.70
2018-09-09T07:42:14.637Z,17.70
2018-09-09T07:44:46.514Z,17.70
2018-09-09T07:47:18.170Z,17.80
2018-09-09T07:49:49.917Z,18.00
2018-09-09T07:52:21.681Z,18.10
2018-09-09T07:54:53.353Z,18.30
2018-09-09T07:57:25.098Z,18.30
2018-09-09T07:59:56.741Z,18.40
2018-09-09T08:02:28.459Z,18.50
2018-09-09T08:05:00.275Z,18.50
2018-09-09T08:07:31.945Z,18.60
2018-09-09T08:10:03.710Z,18.70
2018-09-09T08:12:35.469Z,18.70
2018-09-09T08:15:07.401Z,18.70
2018-09-09T08:17:39.081Z,18.80
2018-09-09T08:20:11.030Z,19.00
2018-09-09T08:22:42.991Z,19.20
2018-09-09T08:25:14.654Z,19.40
2018-09-09T08:27:46.450Z,19.50
2018-09-09T08:30:18.370Z,19.70
2018-09-09T08:32:50.033Z,19.90
2018-09-09T08:35:21.702Z,20.00
2018-09-09T08:37:53.454Z,20.20
2018-09-09T08:40:25.231Z,20.40
2018-09-09T08:42:57.083Z,20.60
2018-09-09T08:45:28.875Z,20.60
2018-09-09T08:48:00.686Z,20.80
2018-09-09T08:50:32.775Z,21.00
2018-09-09T08:53:04.507Z,21.00
2018-09-09T08:55:36.164Z,21.20
2018-09-09T08:58:07.740Z,21.30
2018-09-09T09:00:39.507Z,21.40
2018-09-09T09:03:11.195Z,21.60
2018-09-09T09:05:43.025Z,21.80
2018-09-09T09:08:14.782Z,22.00
2018-09-09T09:10:46.518Z,22.20
2018-09-09T09:13:18.275Z,22.20
2018-09-09T09:15:50.026Z,22.10
2018-09-09T09:18:21.700Z,22.00
2018-09-09T09:20:53.438Z,22.00
2018-09-09T09:23:25.429Z,22.00
2018-09-09T09:25:57.201Z,22.00
2018-09-09T09:28:28.944Z,22.10
2018-09-09T09:31:00.921Z,22.20
2018-09-09T09:33:32.790Z,22.40
2018-09-09T09:36:04.539Z,22.50
2018-09-09T09:38:36.261Z,22.70
2018-09-09T09:41:07.934Z,23.00
2018-09-09T09:43:39.555Z,23.10
2018-09-09T09:46:11.258Z,23.30
2018-09-09T09:48:42.982Z,23.50
2018-09-09T09:51:14.832Z,23.60
2018-09-09T09:53:46.546Z,23.70
2018-09-09T09:56:18.278Z,23.90
2018-09-09T09:58:50.058Z,24.10
2018-09-09T10:01:22.769Z,24.20
2018-09-09T10:03:54.565Z,24.20
2018-09-09T10:06:26.382Z,24.30
2018-09-09T10:09:01.173Z,24.50
2018-09-09T10:11:33.962Z,24.50
2018-09-09T10:14:05.950Z,24.40
2018-09-09T10:16:37.703Z,24.40
2018-09-09T10:19:09.358Z,24.50
2018-09-09T10:21:41.080Z,24.60
2018-09-09T10:24:16.972Z,24.70
2018-09-09T10:26:48.732Z,24.70
2018-09-09T10:29:20.506Z,24.60
2018-09-09T10:31:52.332Z,24.70
2018-09-09T10:34:24.000Z,24.70
2018-09-09T10:36:55.844Z,24.70
2018-09-09T10:39:27.497Z,24.70
2018-09-09T10:41:59.373Z,24.90
2018-09-09T10:44:31.010Z,25.00
2018-09-09T10:47:02.947Z,25.10
2018-09-09T10:49:34.665Z,25.10
2018-09-09T10:52:06.313Z,25.10
2018-09-09T10:54:38.080Z,25.10
2018-09-09T10:57:09.807Z,25.10
2018-09-09T10:59:41.693Z,25.20
2018-09-09T11:02:13.427Z,25.30
2018-09-09T11:04:45.218Z,25.40
2018-09-09T11:07:16.966Z,25.40
2018-09-09T11:09:48.837Z,25.40
2018-09-09T11:12:24.583Z,25.30
2018-09-09T11:14:56.445Z,25.30
2018-09-09T11:17:28.375Z,25.30
2018-09-09T11:20:00.237Z,25.40
2018-09-09T11:22:32.105Z,25.50
2018-09-09T11:25:03.774Z,25.60
2018-09-09T11:27:35.518Z,25.50
2018-09-09T11:30:07.487Z,25.40
2018-09-09T11:32:39.173Z,25.50
2018-09-09T11:35:10.905Z,25.70
2018-09-09T11:37:42.576Z,25.80
2018-09-09T11:40:14.332Z,26.00
2018-09-09T11:42:46.074Z,26.20
2018-09-09T11:45:17.762Z,26.20
2018-09-09T11:47:49.547Z,26.30
2018-09-09T11:50:21.570Z,26.30
2018-09-09T11:52:53.430Z,26.30
2018-09-09T11:55:25.209Z,26.30
2018-09-09T11:57:57.267Z,26.20
2018-09-09T12:00:29.124Z,26.30
2018-09-09T12:03:01.100Z,26.40
2018-09-09T12:05:32.751Z,26.30
2018-09-09T12:08:04.912Z,26.30
2018-09-09T12:10:36.789Z,26.30
2018-09-09T12:13:08.413Z,26.20
2018-09-09T12:15:40.161Z,25.80
2018-09-09T12:18:11.939Z,25.70
2018-09-09T12:20:43.720Z,25.60
2018-09-09T12:23:15.554Z,25.50
2018-09-09T12:25:47.509Z,25.50
2018-09-09T12:28:19.177Z,25.50
2018-09-09T12:30:51.146Z,25.40
2018-09-09T12:33:23.158Z,25.30
2018-09-09T12:35:55.059Z,25.10
2018-09-09T12:38:26.815Z,25.00
2018-09-09T12:40:58.500Z,25.00
2018-09-09T12:43:35.245Z,25.00
2018-09-09T12:46:12.162Z,25.00
2018-09-09T12:48:48.841Z,25.00
2018-09-09T12:51:20.597Z,25.10
2018-09-09T12:53:52.332Z,25.30
2018-09-09T12:56:24.200Z,25.30
2018-09-09T12:58:56.349Z,25.40
2018-09-09T13:01:28.521Z,25.50
2018-09-09T13:04:00.258Z,25.50
2018-09-09T13:06:31.959Z,25.30
2018-09-09T13:09:03.957Z,25.20
2018-09-09T13:11:35.769Z,25.40
2018-09-09T13:14:07.676Z,25.50
2018-09-09T13:16:39.485Z,25.70
2018-09-09T13:19:11.479Z,25.80
2018-09-09T13:21:43.119Z,26.00
2018-09-09T13:24:14.781Z,26.10
2018-09-09T13:26:46.518Z,26.20
2018-09-09T13:29:18.311Z,26.20
2018-09-09T13:31:50.049Z,26.20
2018-09-09T13:34:21.930Z,26.20
2018-09-09T13:36:53.561Z,26.40
2018-09-09T13:39:25.454Z,26.60
2018-09-09T13:41:57.377Z,26.70
2018-09-09T13:44:29.276Z,26.70
2018-09-09T13:47:01.037Z,26.60
2018-09-09T13:49:32.820Z,26.50
2018-09-09T13:52:04.823Z,26.40
2018-09-09T13:54:36.616Z,26.30
2018-09-09T13:57:08.474Z,26.30
2018-09-09T13:59:40.117Z,26.30
2018-09-09T14:02:11.895Z,26.20
2018-09-09T14:04:43.655Z,26.20
2018-09-09T14:07:15.453Z,26.20
2018-09-09T14:09:47.273Z,26.20
2018-09-09T14:12:19.182Z,26.30
2018-09-09T14:14:50.881Z,26.40
2018-09-09T14:17:22.632Z,26.40
2018-09-09T14:19:54.277Z,26.40
2018-09-09T14:22:26.019Z,26.50
2018-09-09T14:24:57.798Z,26.50
2018-09-09T14:27:29.464Z,26.70
2018-09-09T14:30:01.113Z,26.70
2018-09-09T14:32:32.889Z,26.80
2018-09-09T14:35:04.745Z,26.80
2018-09-09T14:37:36.492Z,26.90
2018-09-09T14:40:08.280Z,26.90
2018-09-09T14:42:40.006Z,26.80
2018-09-09T14:45:11.781Z,26.60
2018-09-09T14:47:43.439Z,26.50
2018-09-09T14:50:15.277Z,26.40
2018-09-09T14:52:47.136Z,26.30
2018-09-09T14:55:18.817Z,26.30
2018-09-09T14:57:50.694Z,26.20
2018-09-09T15:00:22.805Z,26.20
2018-09-09T15:02:54.532Z,26.20
2018-09-09T15:05:26.480Z,26.10
2018-09-09T15:07:58.214Z,26.10
2018-09-09T15:10:29.969Z,26.10
2018-09-09T15:13:01.864Z,26.10
2018-09-09T15:15:33.605Z,26.10
2018-09-09T15:18:05.490Z,26.10
2018-09-09T15:20:37.216Z,26.00
2018-09-09T15:23:09.085Z,26.00
2018-09-09T15:25:40.818Z,25.90
2018-09-09T15:28:12.493Z,25.90
2018-09-09T15:30:44.260Z,25.80
2018-09-09T15:33:16.011Z,25.70
2018-09-09T15:35:47.893Z,25.50
2018-09-09T15:38:19.533Z,25.30
2018-09-09T15:40:51.307Z,25.10
2018-09-09T15:43:23.078Z,25.00
2018-09-09T15:45:54.792Z,24.90
2018-09-09T15:48:26.464Z,24.80
2018-09-09T15:50:58.125Z,24.80
2018-09-09T15:53:29.888Z,24.70
2018-09-09T15:56:01.756Z,24.70
2018-09-09T15:58:33.501Z,24.70
2018-09-09T16:01:05.361Z,24.70
2018-09-09T16:03:37.242Z,24.70
2018-09-09T16:06:08.984Z,24.70
2018-09-09T16:08:40.749Z,24.70
2018-09-09T16:11:12.490Z,24.60
2018-09-09T16:13:44.290Z,24.60
2018-09-09T16:16:16.129Z,24.50
2018-09-09T16:18:48.061Z,24.50
2018-09-09T16:21:19.837Z,24.40
2018-09-09T16:23:51.502Z,24.40
2018-09-09T16:26:23.263Z,24.40
2018-09-09T16:28:54.932Z,24.30
2018-09-09T16:31:26.762Z,24.20
2018-09-09T16:33:58.558Z,24.20
2018-09-09T16:36:30.202Z,24.20
2018-09-09T16:39:01.939Z,24.10
2018-09-09T16:41:33.615Z,24.00
2018-09-09T16:44:05.460Z,24.00
2018-09-09T16:46:37.277Z,23.90
2018-09-09T16:49:24.930Z,23.80
2018-09-09T16:52:12.272Z,23.70
2018-09-09T16:54:47.149Z,23.60
2018-09-09T16:57:21.279Z,23.40
2018-09-09T17:00:08.690Z,23.40
2018-09-09T17:02:43.488Z,23.30
2018-09-09T17:05:18.851Z,23.10
2018-09-09T17:08:03.970Z,23.00
2018-09-09T17:10:54.624Z,22.90
2018-09-09T17:13:28.637Z,22.80
2018-09-09T17:16:03.452Z,22.70
2018-09-09T17:18:53.873Z,22.60
2018-09-09T17:21:53.781Z,22.50
2018-09-09T17:24:41.806Z,22.40
2018-09-09T17:27:17.521Z,22.30
2018-09-09T17:30:07.510Z,22.20
2018-09-09T17:33:04.703Z,22.10
2018-09-09T17:36:01.219Z,22.00
2018-09-09T17:38:35.197Z,21.90
2018-09-09T17:41:13.694Z,21.80
2018-09-09T17:43:46.131Z,21.70
2018-09-09T17:46:17.883Z,21.60
2018-09-09T17:48:49.677Z,21.50
2018-09-09T17:51:21.398Z,21.40
2018-09-09T17:53:53.104Z,21.30
2018-09-09T17:56:24.954Z,21.20
2018-09-09T17:58:56.609Z,20.90
2018-09-09T18:01:28.472Z,20.70
2018-09-09T18:04:00.119Z,20.60
2018-09-09T18:06:31.755Z,20.40
2018-09-09T18:09:03.559Z,20.30
2018-09-09T18:11:35.527Z,20.20
2018-09-09T18:14:07.336Z,20.20
2018-09-09T18:16:38.985Z,20.10
2018-09-09T18:19:10.852Z,20.00
2018-09-09T18:21:42.548Z,19.90
2018-09-09T18:24:14.281Z,19.90
2018-09-09T18:26:46.055Z,19.80
2018-09-09T18:29:19.730Z,19.70
2018-09-09T18:31:51.509Z,19.60
2018-09-09T18:34:23.452Z,19.40
2018-09-09T18:36:55.231Z,19.20
2018-09-09T18:39:26.973Z,19.00
2018-09-09T18:41:58.732Z,18.90
2018-09-09T18:44:30.329Z,18.80
2018-09-09T18:47:02.261Z,18.70
2018-09-09T18:49:34.143Z,18.70
2018-09-09T18:52:05.662Z,18.60
2018-09-09T18:54:37.342Z,18.60
2018-09-09T18:57:09.214Z,18.60
2018-09-09T18:59:43.974Z,18.50
2018-09-09T19:02:15.690Z,18.60
2018-09-09T19:04:47.439Z,18.50
2018-09-09T19:07:19.214Z,18.50
2018-09-09T19:09:50.958Z,18.40
2018-09-09T19:12:22.610Z,18.30
2018-09-09T19:14:54.489Z,18.30
2018-09-09T19:17:26.046Z,18.20
2018-09-09T19:19:57.775Z,18.20
2018-09-09T19:22:29.569Z,18.30
2018-09-09T19:25:01.230Z,18.30
2018-09-09T19:27:32.949Z,18.30
2018-09-09T19:30:04.798Z,18.30
2018-09-09T19:32:36.479Z,18.20
2018-09-09T19:35:08.463Z,18.20
2018-09-09T19:37:40.121Z,18.10
2018-09-09T19:40:11.794Z,18.10
2018-09-09T19:42:43.670Z,18.00
2018-09-09T19:45:15.707Z,17.90
2018-09-09T19:47:47.558Z,17.90
2018-09-09T19:50:19.307Z,17.80
2018-09-09T19:52:51.085Z,17.80
2018-09-09T19:55:22.843Z,17.70
2018-09-09T19:57:54.776Z,17.60
2018-09-09T20:00:26.772Z,17.60
2018-09-09T20:02:58.513Z,17.50
2018-09-09T20:05:30.163Z,17.50
2018-09-09T20:08:02.302Z,17.40
2018-09-09T20:10:34.098Z,17.30
2018-09-09T20:13:05.873Z,17.20
2018-09-09T20:15:37.709Z,17.20
2018-09-09T20:18:09.054Z,17.10
2018-09-09T20:20:40.825Z,17.20
2018-09-09T20:23:12.601Z,17.20
2018-09-09T20:25:44.244Z,17.20
2018-09-09T20:28:16.118Z,17.30
2018-09-09T20:30:47.846Z,17.40
2018-09-09T20:33:19.638Z,17.30
2018-09-09T20:35:51.293Z,17.30
2018-09-09T20:38:23.046Z,17.30
2018-09-09T20:40:54.843Z,17.20
2018-09-09T20:43:26.776Z,17.20
2018-09-09T20:45:58.638Z,17.20
2018-09-09T20:48:30.406Z,17.10
2018-09-09T20:51:02.278Z,17.00
2018-09-09T20:53:34.118Z,17.00
2018-09-09T20:56:05.747Z,16.90
2018-09-09T20:58:37.619Z,16.80
2018-09-09T21:01:09.365Z,16.80
2018-09-09T21:03:41.029Z,16.70
2018-09-09T21:06:12.692Z,16.70
2018-09-09T21:08:44.569Z,16.60
2018-09-09T21:11:16.195Z,16.50
2018-09-09T21:13:47.876Z,16.40
2018-09-09T21:16:19.913Z,16.30
2018-09-09T21:18:51.713Z,16.20
2018-09-09T21:21:23.353Z,16.10
2018-09-09T21:23:55.192Z,16.00
2018-09-09T21:26:27.158Z,15.90
2018-09-09T21:28:58.826Z,15.70
2018-09-09T21:31:30.646Z,15.60
2018-09-09T21:34:02.466Z,15.50
2018-09-09T21:36:34.106Z,15.40
2018-09-09T21:39:07.594Z,15.40
2018-09-09T21:41:39.714Z,15.40
2018-09-09T21:44:11.546Z,15.30
2018-09-09T21:46:43.282Z,15.30
2018-09-09T21:49:15.133Z,15.20
2018-09-09T21:51:47.006Z,15.10
2018-09-09T21:54:18.657Z,15.00
2018-09-09T21:56:50.456Z,14.90
2018-09-09T21:59:22.178Z,14.90
2018-09-09T22:01:58.652Z,14.90
2018-09-09T22:04:30.428Z,15.00
2018-09-09T22:07:02.657Z,15.00
2018-09-09T22:09:34.533Z,15.00
2018-09-09T22:12:06.651Z,15.10
2018-09-09T22:14:38.574Z,15.10
2018-09-09T22:17:11.026Z,15.10
2018-09-09T22:19:42.848Z,15.00
2018-09-09T22:22:14.634Z,14.90
2018-09-09T22:24:46.526Z,14.80
2018-09-09T22:27:18.181Z,14.70
2018-09-09T22:29:49.858Z,14.60
2018-09-09T22:32:21.830Z,14.60
2018-09-09T22:34:53.589Z,14.60
2018-09-09T22:37:25.337Z,14.60
2018-09-09T22:39:57.107Z,14.60
2018-09-09T22:42:28.842Z,14.60
2018-09-09T22:45:00.520Z,14.50
2018-09-09T22:47:32.283Z,14.50
2018-09-09T22:50:04.102Z,14.40
2018-09-09T22:52:35.781Z,14.40
2018-09-09T22:55:07.785Z,14.30
2018-09-09T22:57:39.630Z,14.30
2018-09-09T23:00:11.792Z,14.30
2018-09-09T23:02:43.756Z,14.30
2018-09-09T23:05:15.502Z,14.30
2018-09-09T23:07:47.354Z,14.30
2018-09-09T23:10:19.139Z,14.30
2018-09-09T23:12:50.769Z,14.30
2018-09-09T23:15:26.719Z,14.20
2018-09-09T23:17:58.757Z,14.20
2018-09-09T23:20:30.660Z,14.10
2018-09-09T23:23:02.436Z,14.10
2018-09-09T23:25:34.193Z,13.90
2018-09-09T23:28:06.069Z,13.80
2018-09-09T23:30:37.886Z,13.80
2018-09-09T23:33:09.552Z,13.70
2018-09-09T23:35:41.216Z,13.70
2018-09-09T23:38:12.990Z,13.70
2018-09-09T23:40:44.737Z,13.70
2018-09-09T23:43:16.393Z,13.80
2018-09-09T23:45:48.265Z,13.80
2018-09-09T23:48:19.914Z,13.90
2018-09-09T23:50:51.681Z,13.80
2018-09-09T23:53:23.408Z,13.80
2018-09-09T23:55:55.378Z,13.80
2018-09-09T23:58:27.162Z,13.80
